Latest Weather Observations for Yunta

IDS60801

Issued at 10:01 am CST Monday 16 September 2019 (issued every 10 minutes, with the page automatically refreshed every 10 minutes)

About weather observations | Map of weather stations | Latest weather observations for SA | Other Formats
Station Details ID: 020062 Name: YUNTA AIRSTRIP Lat: -32.57 Lon: 139.56 Height: 300.0 m
Data from the previous 72 hours. | See also: Recent months at Yunta
Date/Time
CST
Temp
°C
App
Temp
°C
Dew
Point
°C
Rel
Hum
%
Delta-T
°C
Wind Press
QNH
hPa
Press
MSL
hPa
Rain since
9am
mm
Dir  Spd
km/h
Gust
km/h
Spd
kts
Gust
kts
16/10:00am 13.6 7.1 4.5 54 4.2 S 28 39 15 21 1020.8 1020.6 0.0
16/09:30am 13.5 7.3 4.1 53 4.3 SSE 26 35 14 19 1020.6 1020.4 0.0
16/09:00am 13.4 7.8 3.2 50 4.6 SSE 22 33 12 18 1020.3 1020.0 0.0
16/08:30am 12.9 7.1 4.3 56 4.0 S 24 32 13 17 1019.9 1019.6 0.0
16/08:00am 12.7 7.3 4.7 58 3.7 SSE 22 28 12 15 1019.6 1019.3 0.0
16/07:30am 12.0 6.2 6.1 67 2.8 SSE 26 35 14 19 1019.6 1019.3 0.0
16/07:00am 12.6 7.4 7.3 70 2.6 SSE 24 35 13 19 1019.4 1019.1 0.0
16/06:30am 13.2 9.5 9.5 78 1.9 SSE 19 26 10 14 1018.6 1018.4 0.0
16/06:00am 13.3 10.0 9.4 77 2.0 SSE 17 24 9 13 1018.3 1018.1 0.0
16/05:30am 13.4 9.7 9.5 77 2.0 SSE 19 26 10 14 1018.1 1017.9 0.0
16/05:00am 13.9 10.1 9.1 73 2.5 S 19 28 10 15 1017.8 1017.6 0.0
16/04:30am 14.9 11.0 8.6 66 3.2 SSW 19 26 10 14 1017.2 1016.9 0.0
16/04:00am 16.3 12.7 6.7 53 4.8 SSW 15 20 8 11 1016.7 1016.4 0.0
16/03:30am 16.9 14.4 4.6 44 5.9 SW 7 13 4 7 1016.4 1016.1 0.0
16/03:00am 17.5 13.9 3.0 38 6.8 SW 11 17 6 9 1016.0 1015.7 0.0
16/02:30am 20.5 15.2 -3.2 20 10.0 SW 15 24 8 13 1015.9 1015.6 0.0
16/02:00am 20.6 13.8 -5.3 17 10.5 N 22 26 12 14 1014.9 1014.7 0.0
16/01:30am 20.2 13.4 -5.6 17 10.4 NNW 22 26 12 14 1014.9 1014.7 0.0
16/01:00am 20.4 13.6 -5.4 17 10.4 NNW 22 24 12 13 1015.3 1015.1 0.0
16/12:30am 20.2 13.8 -4.8 18 10.2 N 20 24 11 13 1015.8 1015.5 0.0
16/12:00am 20.4 14.2 -4.7 18 10.3 N 19 20 10 11 1016.3 1016.0 0.0
 
Date/Time
CST
Temp
°C
App
Temp
°C
Dew
Point
°C
Rel
Hum
%
Delta-T
°C
Wind Press
QNH
hPa
Press
MSL
hPa
Rain since
9am
mm
Dir  Spd
km/h
Gust
km/h
Spd
kts
Gust
kts
15/11:30pm 22.7 15.9 -5.2 15 11.6 N 22 28 12 15 1016.5 1016.2 0.0
15/11:00pm 22.5 16.2 -5.4 15 11.5 NNW 19 20 10 11 1016.4 1016.1 0.0
15/10:30pm 23.0 17.4 -3.3 17 11.3 N 17 20 9 11 1016.5 1016.2 0.0
15/10:00pm 23.4 17.8 -3.0 17 11.5 N 17 19 9 10 1016.5 1016.2 0.0
15/09:30pm 24.7 19.0 -3.6 15 12.3 N 17 22 9 12 1016.6 1016.3 0.0
15/09:00pm 25.8 19.7 -3.7 14 12.9 N 19 24 10 13 1016.6 1016.3 0.0
15/08:30pm 26.0 20.7 -3.5 14 13.0 N 15 28 8 15 1017.1 1016.8 0.0
15/08:00pm 26.8 18.3 -2.9 14 13.3 NW 32 41 17 22 1017.3 1017.0 0.0
15/07:30pm 26.8 19.5 -2.9 14 13.3 NW 26 37 14 20 1017.7 1017.5 0.0
15/07:00pm 26.6 19.6 -3.1 14 13.3 WNW 24 33 13 18 1017.7 1017.5 0.0
15/06:30pm 27.2 20.7 -2.6 14 13.5 WNW 22 30 12 16 1017.6 1017.4 0.0
15/06:00pm 27.9 21.3 -3.0 13 14.0 WNW 22 30 12 16 1017.3 1017.0 0.0
15/05:30pm 28.4 22.3 -2.6 13 14.2 WNW 20 30 11 16 1016.9 1016.6 0.0
15/05:00pm 29.2 22.2 -3.1 12 14.7 NW 24 33 13 18 1016.8 1016.5 0.0
15/04:30pm 29.1 21.9 -2.1 13 14.5 WNW 26 35 14 19 1016.6 1016.3 0.0
15/04:00pm 30.2 23.7 -2.3 12 15.1 NNW 22 41 12 22 1016.5 1016.2 0.0
15/03:30pm 30.6 23.9 -0.9 13 15.1 N 24 32 13 17 1016.6 1016.3 0.0
15/03:00pm 29.7 22.7 -0.6 14 14.5 N 26 35 14 19 1017.1 1016.8 0.0
15/02:30pm 29.9 23.3 -0.5 14 14.6 NNW 24 39 13 21 1017.4 1017.1 0.0
15/02:00pm 29.1 22.5 -0.1 15 14.0 NNW 24 44 13 24 1018.0 1017.8 0.0
15/01:30pm 29.0 22.0 -0.2 15 14.0 NNW 26 39 14 21 1018.5 1018.3 0.0
15/01:00pm 29.0 21.3 -0.2 15 14.0 NNW 30 44 16 24 1019.0 1018.7 0.0
15/12:30pm 28.5 20.6 1.1 17 13.4 NNW 32 43 17 23 1019.6 1019.3 0.0
15/12:00pm 27.6 20.5 1.2 18 12.8 NNW 28 37 15 20 1020.1 1019.8 0.0
15/11:30am 26.6 18.7 1.1 19 12.3 NNW 32 39 17 21 1020.4 1020.1 0.0
15/11:00am 26.6 19.6 1.8 20 12.1 N 28 37 15 20 1020.7 1020.5 0.0
15/10:30am 25.9 18.9 1.9 21 11.6 NNW 28 35 15 19 1021.1 1020.9 0.0
15/10:00am - - - - - N 24 33 13 18 1021.5 1021.3 0.0
15/09:30am - - - - - N 32 37 17 20 1021.3 1021.1 0.0
15/09:00am - - - - - N 24 32 13 17 1022.0 1021.8 0.0
15/08:30am 20.5 14.0 2.8 31 8.4 NNW 26 35 14 19 1022.1 1021.9 0.0
15/08:00am 18.0 12.2 2.3 35 7.3 N 22 28 12 15 1021.9 1021.7 0.0
15/07:30am 18.0 12.6 2.7 36 7.1 NNW 20 24 11 13 1022.0 1021.8 0.0
15/07:00am 17.4 11.3 2.6 37 6.9 NNW 24 28 13 15 1021.4 1021.2 0.0
15/06:30am 16.7 11.0 2.7 39 6.4 N 22 26 12 14 1021.1 1020.9 0.0
15/06:00am 16.0 9.8 2.4 40 6.2 NNW 24 28 13 15 1020.8 1020.6 0.0
15/05:30am 15.9 9.4 2.7 41 6.0 N 26 32 14 17 1020.9 1020.7 0.0
15/05:00am - - - - - N 26 32 14 17 1020.9 1020.7 0.0
15/04:30am - - - - - NNW 26 30 14 16 1020.8 1020.6 0.0
15/04:00am - - - - - NNW 24 28 13 15 1020.6 1020.4 0.0
15/03:30am - - - - - N 24 28 13 15 1020.5 1020.3 0.0
15/03:00am - - - - - N 20 24 11 13 1020.7 1020.5 0.0
15/02:30am - - - - - N 22 26 12 14 1021.2 1021.0 0.0
15/02:00am - - - - - N 20 24 11 13 1021.6 1021.4 0.0
15/01:30am - - - - - N 22 26 12 14 1022.2 1022.0 0.0
15/01:00am - - - - - N 22 26 12 14 1022.6 1022.3 0.0
15/12:30am - - - - - N 20 26 11 14 1022.8 1022.5 0.0
15/12:00am - - - - - N 22 26 12 14 1023.1 1022.8 0.0
 
Date/Time
CST
Temp
°C
App
Temp
°C
Dew
Point
°C
Rel
Hum
%
Delta-T
°C
Wind Press
QNH
hPa
Press
MSL
hPa
Rain since
9am
mm
Dir  Spd
km/h
Gust
km/h
Spd
kts
Gust
kts
14/11:30pm - - - - - N 19 22 10 12 1023.4 1023.2 0.0
14/11:00pm 17.8 13.1 3.3 38 6.8 NNW 17 19 9 10 1023.6 1023.4 0.0
14/10:30pm 18.5 13.2 3.2 36 7.2 NNW 20 24 11 13 1023.5 1023.3 0.0
14/10:00pm 18.4 13.0 2.3 34 7.5 N 20 24 11 13 1023.8 1023.6 0.0
14/09:30pm 19.4 14.0 2.7 33 7.8 N 20 24 11 13 1023.8 1023.6 0.0
14/09:00pm 19.4 14.2 2.3 32 8.0 N 19 20 10 11 1024.0 1023.8 0.0
14/08:30pm 19.6 14.8 2.5 32 8.0 N 17 19 9 10 1024.2 1024.0 0.0
14/08:00pm 19.5 15.0 1.9 31 8.2 N 15 17 8 9 1024.2 1024.0 0.0
14/07:30pm 19.3 15.0 1.3 30 8.2 N 13 13 7 7 1024.1 1023.9 0.0
14/07:00pm 20.2 16.3 1.1 28 8.8 N 11 11 6 6 1024.0 1023.8 0.0
14/06:30pm 22.1 18.7 1.7 26 9.6 N 9 11 5 6 1023.8 1023.6 0.0
14/06:00pm 23.9 20.5 2.1 24 10.5 N 9 13 5 7 1023.7 1023.5 0.0
14/05:30pm 25.3 22.0 2.7 23 11.1 N 9 17 5 9 1023.5 1023.3 0.0
14/05:00pm 25.9 21.5 2.6 22 11.5 N 15 20 8 11 1023.3 1023.1 0.0
14/04:30pm 26.4 22.7 2.3 21 11.8 N 11 22 6 12 1023.0 1022.7 0.0
14/04:00pm 26.3 22.7 2.9 22 11.6 N 11 19 6 10 1023.1 1022.8 0.0
14/03:30pm 26.8 23.6 3.3 22 11.8 N 9 19 5 10 1023.4 1023.2 0.0
14/03:00pm 26.3 22.3 2.9 22 11.6 N 13 19 7 10 1023.7 1023.5 0.0
14/02:30pm 26.4 22.9 3.6 23 11.4 N 11 19 6 10 1023.8 1023.6 0.0
14/02:00pm 26.0 22.6 3.9 24 11.2 NNW 11 19 6 10 1024.2 1024.0 0.0
14/01:30pm 25.8 22.5 4.3 25 10.9 N 11 19 6 10 1024.7 1024.5 0.0
14/01:00pm 25.9 22.3 4.9 26 10.8 NNW 13 20 7 11 1024.8 1024.6 0.0
14/12:30pm 25.1 21.0 4.3 26 10.5 NNW 15 22 8 12 1025.2 1025.0 0.0
14/12:00pm 25.7 22.8 4.8 26 10.7 NNE 9 17 5 9 1025.6 1025.4 0.0
14/11:30am 23.9 21.4 4.8 29 9.6 N 7 15 4 8 1026.2 1026.0 0.0
14/11:00am 23.1 21.2 5.1 31 9.1 ENE 4 11 2 6 1026.6 1026.4 0.0
14/10:30am 21.3 19.4 4.8 34 8.2 SE 4 7 2 4 1026.8 1026.6 0.0
14/10:00am 19.4 17.9 5.1 39 7.1 SE 2 6 1 3 1027.2 1027.0 0.0
14/09:30am 17.1 15.9 4.8 44 5.9 CALM 0 0 0 0 1027.6 1027.4 0.0
14/09:00am 15.6 13.7 4.9 49 5.1 S 4 6 2 3 1027.8 1027.6 0.0
14/08:30am 13.9 12.3 4.5 53 4.4 S 2 7 1 4 1028.2 1028.0 0.0
14/08:00am 12.5 10.0 4.0 56 3.9 S 6 9 3 5 1028.1 1027.9 0.0
14/07:30am 11.6 10.2 3.6 58 3.6 CALM 0 0 0 0 1027.9 1027.7 0.0
14/07:00am 9.8 8.0 1.5 56 3.5 CALM 0 0 0 0 1027.7 1027.5 0.0
14/06:30am 8.1 6.2 0.6 59 3.0 CALM 0 0 0 0 1027.5 1027.3 0.0
14/06:00am 7.7 4.6 0.0 58 3.1 S 6 9 3 5 1027.4 1027.2 0.0
14/05:30am 8.5 4.8 0.2 56 3.3 S 9 9 5 5 1027.1 1026.9 0.0
14/05:00am 9.2 5.6 0.9 56 3.4 S 9 11 5 6 1026.9 1026.7 0.0
14/04:30am 7.4 5.2 -1.3 54 3.3 CALM 0 0 0 0 1026.7 1026.5 0.0
14/04:00am 8.7 6.7 -0.1 54 3.5 CALM 0 0 0 0 1026.7 1026.5 0.0
14/03:30am 9.1 6.7 -0.2 52 3.7 S 2 4 1 2 1026.8 1026.6 0.0
14/03:00am 10.7 7.6 0.2 48 4.3 S 6 9 3 5 1026.9 1026.7 0.0
14/02:30am 11.2 9.0 0.9 49 4.3 S 2 4 1 2 1027.1 1026.9 0.0
14/02:00am 11.2 8.5 0.0 46 4.6 S 4 4 2 2 1027.2 1027.0 0.0
14/01:30am 11.2 8.0 -0.3 45 4.7 S 6 7 3 4 1027.4 1027.2 0.0
14/01:00am 10.7 7.3 -0.4 46 4.5 S 7 9 4 5 1027.4 1027.2 0.0
14/12:30am 10.9 8.1 -0.5 45 4.6 S 4 6 2 3 1027.5 1027.3 0.0
14/12:00am 11.3 7.8 -1.1 42 5.0 S 7 7 4 4 1027.6 1027.4 0.0
 
Date/Time
CST
Temp
°C
App
Temp
°C
Dew
Point
°C
Rel
Hum
%
Delta-T
°C
Wind Press
QNH
hPa
Press
MSL
hPa
Rain since
9am
mm
Dir  Spd
km/h
Gust
km/h
Spd
kts
Gust
kts
13/11:30pm 12.0 8.8 -0.2 43 5.0 S 6 7 3 4 1027.6 1027.4 0.0
13/11:00pm 12.9 9.6 0.0 41 5.4 S 7 9 4 5 1027.6 1027.4 0.0
13/10:30pm 13.5 10.1 -0.5 38 5.8 S 7 9 4 5 1027.6 1027.4 0.0
13/10:00pm 13.9 11.6 0.2 39 5.9 S 2 4 1 2 1027.5 1027.3 0.0
13/09:30pm 15.4 12.2 0.8 37 6.4 S 7 9 4 5 1027.4 1027.2 0.0
13/09:00pm 17.4 13.9 1.4 34 7.2 S 9 11 5 6 1027.1 1026.9 0.0
13/08:30pm 19.6 15.1 2.0 31 8.1 SSE 15 22 8 12 1026.9 1026.7 0.0
13/08:00pm 19.5 15.7 1.5 30 8.3 SSE 11 15 6 8 1026.6 1026.4 0.0
13/07:30pm 20.1 16.2 1.0 28 8.7 SSE 11 15 6 8 1026.2 1026.0 0.0
13/07:00pm 21.1 16.4 0.9 26 9.3 SSE 15 24 8 13 1025.6 1025.4 0.0
13/06:30pm 22.1 16.5 0.0 23 10.0 SSE 19 26 10 14 1025.2 1025.0 0.0
13/06:00pm 23.0 17.5 -1.8 19 11.0 S 17 24 9 13 1024.7 1024.5 0.0
13/05:30pm 24.3 18.7 -3.1 16 12.0 S 17 22 9 12 1024.3 1024.1 0.0
13/05:00pm 25.1 19.0 -4.2 14 12.7 S 19 28 10 15 1024.0 1023.8 0.0
13/04:30pm 25.7 18.7 -3.8 14 12.9 S 24 33 13 18 1024.0 1023.8 0.0
13/04:00pm 26.4 20.2 -3.2 14 13.2 S 20 30 11 16 1023.6 1023.4 0.0
13/03:30pm 26.6 20.9 -4.0 13 13.4 S 17 32 9 17 1023.4 1023.2 0.0
13/03:00pm 26.8 21.3 -2.0 15 13.1 SSW 17 32 9 17 1023.4 1023.2 0.0
13/02:30pm 25.9 20.7 -0.2 18 12.2 WSW 17 30 9 16 1023.5 1023.3 0.0
13/02:00pm 25.7 20.4 -0.4 18 12.2 SSW 17 26 9 14 1023.7 1023.5 0.0
13/01:30pm 25.5 19.7 -1.3 17 12.2 WSW 19 28 10 15 1024.0 1023.8 0.0
13/01:00pm 24.5 20.8 0.1 20 11.4 W 9 22 5 12 1024.4 1024.2 0.0
13/12:30pm 24.1 19.8 1.1 22 10.8 WSW 13 22 7 12 1024.9 1024.7 0.0
13/12:00pm 24.7 20.4 0.9 21 11.2 W 13 24 7 13 1025.1 1024.9 0.0
13/11:30am 23.7 20.0 2.5 25 10.2 WNW 11 19 6 10 1025.4 1025.2 0.0
13/11:00am 22.2 20.2 4.3 31 8.9 N 4 11 2 6 1025.6 1025.4 0.0
13/10:30am 20.8 17.9 4.8 35 7.9 NNW 9 17 5 9 1026.1 1025.8 0.0

Other formats

Comma delimited format used in spreadsheet applications
http://www.bom.gov.au/fwo/IDS60801/IDS60801.94684.axf

JavaScript Object Notation format (JSON) in row-major order
http://www.bom.gov.au/fwo/IDS60801/IDS60801.94684.json

Data quality

Most of these data are generated automatically and are frequently updated. Quality checks on data are not normally performed. It is possible for incorrect values to appear. Refer to information at About Latest Weather Observations and please check the disclaimer before using these data.